createdAt,value
2022-12-31T00:00:03.015Z,596.8
2022-12-31T00:01:05.528Z,597.1
2022-12-31T00:02:08.751Z,596.8
2022-12-31T00:03:12.276Z,596.7
2022-12-31T00:04:15.019Z,597
2022-12-31T00:05:17.536Z,596.4
2022-12-31T00:06:19.504Z,596.2
2022-12-31T00:07:21.813Z,596.5
2022-12-31T00:08:24.073Z,596.7
2022-12-31T00:09:26.644Z,596.5
2022-12-31T00:10:28.837Z,596.5
2022-12-31T00:11:31.086Z,597.1
2022-12-31T00:12:33.330Z,596.9
2022-12-31T00:13:35.837Z,596.8
2022-12-31T00:14:38.340Z,596.4
2022-12-31T00:15:40.592Z,596.6
2022-12-31T00:16:43.213Z,596.6
2022-12-31T00:17:45.455Z,596.6
2022-12-31T00:18:47.982Z,596.9
2022-12-31T00:19:50.607Z,597
2022-12-31T00:20:53.126Z,596.9
2022-12-31T00:21:55.354Z,596.6
2022-12-31T00:22:57.608Z,596.4
2022-12-31T00:23:59.874Z,596.5
2022-12-31T00:25:02.392Z,596.8
2022-12-31T00:26:04.948Z,596.2
2022-12-31T00:27:07.522Z,596.5
2022-12-31T00:28:09.763Z,597.3
2022-12-31T00:29:12.308Z,597.1
2022-12-31T00:30:15.086Z,597
2022-12-31T00:31:17.738Z,596.9
2022-12-31T00:32:20.261Z,596.5
2022-12-31T00:33:22.788Z,596.2
2022-12-31T00:34:25.314Z,596.3
2022-12-31T00:35:27.872Z,596.1
2022-12-31T00:36:30.391Z,595.7
2022-12-31T00:37:32.636Z,595.6
2022-12-31T00:38:35.144Z,596
2022-12-31T00:39:37.359Z,595.7
2022-12-31T00:40:39.571Z,595.4
2022-12-31T00:41:42.125Z,595.5
2022-12-31T00:42:44.432Z,595
2022-12-31T00:43:46.947Z,594.1
2022-12-31T00:44:49.459Z,594.6
2022-12-31T00:45:51.950Z,595
2022-12-31T00:46:54.029Z,594.7
2022-12-31T00:47:56.313Z,594.8
2022-12-31T00:48:58.834Z,593.5
2022-12-31T00:50:01.100Z,593.6
2022-12-31T00:51:03.721Z,593.3
2022-12-31T00:52:06.206Z,593.9
2022-12-31T00:53:08.781Z,593.2
2022-12-31T00:54:11.027Z,592.8
2022-12-31T00:55:13.262Z,593
2022-12-31T00:56:15.815Z,592.1
2022-12-31T00:57:17.797Z,591.9
2022-12-31T00:58:20.322Z,591.6
2022-12-31T00:59:22.549Z,591.1
2022-12-31T01:00:24.771Z,591.4
2022-12-31T01:01:28.022Z,591.6
2022-12-31T01:02:31.908Z,590.9
2022-12-31T01:03:34.466Z,590.8
2022-12-31T01:04:37.040Z,591.9
2022-12-31T01:05:38.986Z,591.4
2022-12-31T01:06:41.605Z,591.2
2022-12-31T01:07:44.147Z,590.6
2022-12-31T01:08:46.691Z,591.1
2022-12-31T01:09:49.208Z,591
2022-12-31T01:10:51.495Z,591.3
2022-12-31T01:11:54.024Z,591.2
2022-12-31T01:12:56.539Z,591.3
2022-12-31T01:13:59.094Z,590.9
2022-12-31T01:15:01.614Z,590.2
2022-12-31T01:16:04.602Z,590.8
2022-12-31T01:17:06.860Z,589.6
2022-12-31T01:18:09.414Z,590.4
2022-12-31T01:19:11.810Z,589.9
2022-12-31T01:20:14.582Z,589.6
2022-12-31T01:21:16.849Z,589.6
2022-12-31T01:22:19.463Z,589.3
2022-12-31T01:23:21.695Z,589
2022-12-31T01:24:23.945Z,589.6
2022-12-31T01:25:26.254Z,589.2
2022-12-31T01:26:28.788Z,589.5
2022-12-31T01:27:31.293Z,588.8
2022-12-31T01:28:33.580Z,588.7
2022-12-31T01:29:36.218Z,589.1
2022-12-31T01:30:39.044Z,588.7
2022-12-31T01:31:41.562Z,588.8
2022-12-31T01:32:44.053Z,588.8
2022-12-31T01:33:46.328Z,587.8
2022-12-31T01:34:48.836Z,587.5
2022-12-31T01:35:51.044Z,588.3
2022-12-31T01:36:53.649Z,587.6
2022-12-31T01:37:56.305Z,586.9
2022-12-31T01:38:58.840Z,587.1
2022-12-31T01:40:01.059Z,586.6
2022-12-31T01:41:03.032Z,586.5
2022-12-31T01:42:05.237Z,586.7
2022-12-31T01:43:07.742Z,586.4
2022-12-31T01:44:10.255Z,586.7
2022-12-31T01:45:12.782Z,586.7
2022-12-31T01:46:15.499Z,587.1
2022-12-31T01:47:18.046Z,586.7
2022-12-31T01:48:20.554Z,587.1
2022-12-31T01:49:22.984Z,586.7
2022-12-31T01:50:25.257Z,585.6
2022-12-31T01:51:27.784Z,586.8
2022-12-31T01:52:30.324Z,586.4
2022-12-31T01:53:32.952Z,586.4
2022-12-31T01:54:35.209Z,586.6
2022-12-31T01:55:37.449Z,586.9
2022-12-31T01:56:39.967Z,587.1
2022-12-31T01:57:42.460Z,586.6
2022-12-31T01:58:45.060Z,586.5
2022-12-31T01:59:47.626Z,586.9
2022-12-31T02:00:50.206Z,587.4
2022-12-31T02:01:53.034Z,587.1
2022-12-31T02:02:56.067Z,586.4
2022-12-31T02:03:58.595Z,586.8
2022-12-31T02:05:01.208Z,586.7
2022-12-31T02:06:03.726Z,586.5
2022-12-31T02:07:06.010Z,586.4
2022-12-31T02:08:07.977Z,586.5
2022-12-31T02:09:10.067Z,586.7
2022-12-31T02:10:12.306Z,587.1
2022-12-31T02:11:14.814Z,587.5
2022-12-31T02:12:17.325Z,586.4
2022-12-31T02:13:19.537Z,586.5
2022-12-31T02:14:21.771Z,586.5
2022-12-31T02:15:24.269Z,587.1
2022-12-31T02:16:26.763Z,586
2022-12-31T02:17:29.061Z,587
2022-12-31T02:18:31.557Z,587.1
2022-12-31T02:19:34.062Z,587.5
2022-12-31T02:20:36.628Z,587.4
2022-12-31T02:21:39.244Z,587.1
2022-12-31T02:22:42.036Z,587
2022-12-31T02:23:44.591Z,587.3
2022-12-31T02:24:46.908Z,586.9
2022-12-31T02:25:49.413Z,586.8
2022-12-31T02:26:51.924Z,586.6
2022-12-31T02:27:54.451Z,586.6
2022-12-31T02:28:56.697Z,587.3
2022-12-31T02:29:59.238Z,587.5
2022-12-31T02:31:01.329Z,587.5
2022-12-31T02:32:03.650Z,587.6
2022-12-31T02:33:05.621Z,587.5
2022-12-31T02:34:07.860Z,587.5
2022-12-31T02:35:10.134Z,587.7
2022-12-31T02:36:12.643Z,587.5
2022-12-31T02:37:15.137Z,587.3
2022-12-31T02:38:17.653Z,586.9
2022-12-31T02:39:19.865Z,587.5
2022-12-31T02:40:22.496Z,586.6
2022-12-31T02:41:24.999Z,587.2
2022-12-31T02:42:27.501Z,587.2
2022-12-31T02:43:30.014Z,587.1
2022-12-31T02:44:32.553Z,587.2
2022-12-31T02:45:34.844Z,587.3
2022-12-31T02:46:37.471Z,587
2022-12-31T02:47:39.767Z,587.5
2022-12-31T02:48:42.328Z,587.1
2022-12-31T02:49:44.559Z,587.3
2022-12-31T02:50:47.073Z,587
2022-12-31T02:51:49.325Z,587.3
2022-12-31T02:52:51.823Z,587.4
2022-12-31T02:53:54.062Z,587.2
2022-12-31T02:54:56.014Z,587.5
2022-12-31T02:55:58.083Z,587.5
2022-12-31T02:57:00.615Z,587.4
2022-12-31T02:58:02.853Z,587.1
2022-12-31T02:59:05.378Z,587.7
2022-12-31T03:00:07.061Z,587.7
2022-12-31T03:01:09.784Z,588
2022-12-31T03:02:13.125Z,587.4
2022-12-31T03:03:15.706Z,587.4
2022-12-31T03:04:17.964Z,587.3
2022-12-31T03:05:20.225Z,587.4
2022-12-31T03:06:22.767Z,587.1
2022-12-31T03:07:25.040Z,587.5
2022-12-31T03:08:27.607Z,587.3
2022-12-31T03:09:29.821Z,587.3
2022-12-31T03:10:32.098Z,587
2022-12-31T03:11:34.704Z,587.4
2022-12-31T03:12:37.215Z,587.8
2022-12-31T03:13:39.730Z,587.3
2022-12-31T03:14:42.217Z,587.3
2022-12-31T03:15:44.168Z,587.2
2022-12-31T03:16:46.399Z,587.2
2022-12-31T03:17:48.344Z,586.7
2022-12-31T03:18:50.624Z,586.6
2022-12-31T03:19:53.128Z,586.3
2022-12-31T03:20:55.627Z,586.8
2022-12-31T03:21:57.853Z,585.8
2022-12-31T03:22:59.518Z,586.4
2022-12-31T03:24:01.746Z,586
2022-12-31T03:25:04.003Z,586.1
2022-12-31T03:26:06.215Z,586.6
2022-12-31T03:27:08.872Z,586.5
2022-12-31T03:28:11.355Z,586.5
2022-12-31T03:29:13.064Z,586
2022-12-31T03:30:15.799Z,586
2022-12-31T03:31:18.931Z,585.9
2022-12-31T03:32:21.225Z,585.4
2022-12-31T03:33:23.725Z,584.7
2022-12-31T03:34:26.261Z,584.5
2022-12-31T03:35:28.782Z,584.5
2022-12-31T03:36:31.292Z,584.2
2022-12-31T03:37:33.834Z,583.9
2022-12-31T03:38:36.335Z,584.2
2022-12-31T03:39:38.564Z,584.6
2022-12-31T03:40:41.101Z,584.1
2022-12-31T03:41:43.339Z,584.9
2022-12-31T03:42:45.986Z,583.8
2022-12-31T03:43:48.499Z,583.8
2022-12-31T03:44:50.997Z,583.9
2022-12-31T03:45:54.279Z,583.7
2022-12-31T03:46:56.794Z,583.9
2022-12-31T03:47:59.308Z,584
2022-12-31T03:49:01.821Z,583.9
2022-12-31T03:50:04.401Z,583.6
2022-12-31T03:51:06.343Z,583.4
2022-12-31T03:52:08.565Z,583.3
2022-12-31T03:53:11.290Z,584.3
2022-12-31T03:54:13.810Z,583.5
2022-12-31T03:55:16.082Z,583.8
2022-12-31T03:56:18.612Z,583.8
2022-12-31T03:57:21.151Z,584
2022-12-31T03:58:23.885Z,584.3
2022-12-31T03:59:26.395Z,584
2022-12-31T04:00:28.891Z,583.5
2022-12-31T04:01:31.974Z,582.9
2022-12-31T04:02:35.440Z,583.2
2022-12-31T04:03:38.033Z,583.1
2022-12-31T04:04:40.245Z,582.8
2022-12-31T04:05:42.536Z,583.1
2022-12-31T04:06:45.035Z,583.1
2022-12-31T04:07:47.275Z,583.1
2022-12-31T04:08:49.805Z,582.9
2022-12-31T04:09:52.089Z,582.7
2022-12-31T04:10:54.359Z,582.9
2022-12-31T04:11:56.891Z,583.1
2022-12-31T04:12:59.393Z,582.5
2022-12-31T04:14:01.742Z,583
2022-12-31T04:15:04.345Z,583.1
2022-12-31T04:16:07.076Z,582.4
2022-12-31T04:17:09.604Z,582.7
2022-12-31T04:18:11.925Z,582.5
2022-12-31T04:19:14.451Z,581.6
2022-12-31T04:20:16.999Z,582
2022-12-31T04:21:19.544Z,581.5
2022-12-31T04:22:21.784Z,581.2
2022-12-31T04:23:24.282Z,580.9
2022-12-31T04:24:26.810Z,580.7
2022-12-31T04:25:29.034Z,580.7
2022-12-31T04:26:31.245Z,580.8
2022-12-31T04:27:33.765Z,580.1
2022-12-31T04:28:36.282Z,580.3
2022-12-31T04:29:38.868Z,580
2022-12-31T04:30:41.382Z,580
2022-12-31T04:31:44.265Z,579.6
2022-12-31T04:32:46.555Z,579.7
2022-12-31T04:33:49.079Z,580.2
2022-12-31T04:34:51.622Z,579.9
2022-12-31T04:35:53.835Z,580.2
2022-12-31T04:36:56.371Z,580.2
2022-12-31T04:37:58.906Z,580
2022-12-31T04:39:00.858Z,580
2022-12-31T04:41:08.079Z,579.4
2022-12-31T04:42:10.644Z,579.7
2022-12-31T04:43:12.854Z,579.6
2022-12-31T04:44:15.109Z,579.4
2022-12-31T04:45:17.730Z,579.5
2022-12-31T04:46:20.682Z,579.1
2022-12-31T04:48:28.247Z,579.3
2022-12-31T04:49:30.467Z,579.5
2022-12-31T04:50:32.972Z,579
2022-12-31T04:51:35.208Z,579.1
2022-12-31T04:53:42.440Z,578.7
2022-12-31T04:54:44.999Z,578.6
2022-12-31T04:55:47.524Z,578
2022-12-31T04:56:49.494Z,578.6
2022-12-31T04:57:51.998Z,578.5
2022-12-31T04:58:54.228Z,578.4
2022-12-31T04:59:55.641Z,578.3
2022-12-31T05:00:58.985Z,578.6
2022-12-31T05:02:03.031Z,578.5
2022-12-31T05:03:05.995Z,578.4
2022-12-31T05:04:08.543Z,578.2
2022-12-31T05:05:11.102Z,579.2
2022-12-31T05:06:13.599Z,578.4
2022-12-31T05:07:15.840Z,578.7
2022-12-31T05:08:18.141Z,578.6
2022-12-31T05:09:20.534Z,578.9
2022-12-31T05:10:23.048Z,578.8
2022-12-31T05:11:25.543Z,578.8
2022-12-31T05:12:28.046Z,578.9
2022-12-31T05:14:35.278Z,578.5
2022-12-31T05:15:37.496Z,578.5
2022-12-31T05:16:40.368Z,578.4
2022-12-31T05:17:42.909Z,578.4
2022-12-31T05:18:45.413Z,578.2
2022-12-31T05:19:47.933Z,578.4
2022-12-31T05:20:50.472Z,578.5
2022-12-31T05:21:53.004Z,578
2022-12-31T05:22:55.505Z,578.7
2022-12-31T05:23:58.048Z,578.4
2022-12-31T05:25:00.661Z,578.1
2022-12-31T05:26:03.233Z,577.9
2022-12-31T05:27:05.727Z,577.9
2022-12-31T05:28:07.958Z,577.6
2022-12-31T05:29:10.194Z,577.3
2022-12-31T05:30:12.417Z,577
2022-12-31T05:31:15.299Z,577.2
2022-12-31T05:32:17.920Z,577
2022-12-31T05:33:20.426Z,576.4
2022-12-31T05:34:22.960Z,577
2022-12-31T05:35:24.890Z,576.5
2022-12-31T05:36:27.102Z,576.6
2022-12-31T05:37:29.616Z,576.5
2022-12-31T05:38:31.880Z,576.5
2022-12-31T05:39:34.391Z,576.5
2022-12-31T05:40:36.626Z,576
2022-12-31T05:41:39.138Z,576.4
2022-12-31T05:42:41.415Z,576.8
2022-12-31T05:43:43.712Z,577.3
2022-12-31T05:44:46.262Z,577.3
2022-12-31T05:45:48.763Z,577.3
2022-12-31T05:46:51.040Z,577.3
2022-12-31T05:47:53.646Z,577.6
2022-12-31T05:48:56.157Z,578.2
2022-12-31T05:49:58.415Z,578.1
2022-12-31T05:51:00.676Z,578.3
2022-12-31T05:52:03.206Z,578.5
2022-12-31T05:53:05.491Z,578.6
2022-12-31T05:54:08.032Z,578.8
2022-12-31T05:55:10.280Z,578.5
2022-12-31T05:56:12.518Z,578.4
2022-12-31T05:57:14.767Z,579
2022-12-31T05:58:17.061Z,578.8
2022-12-31T05:59:18.998Z,578.7
2022-12-31T06:00:21.583Z,579.1
2022-12-31T06:01:24.309Z,578.8
2022-12-31T06:02:27.127Z,578.8
2022-12-31T06:03:29.973Z,578.6
2022-12-31T06:04:32.236Z,578.2
2022-12-31T06:05:34.746Z,578.6
2022-12-31T06:06:37.274Z,578.4
2022-12-31T06:07:39.777Z,578
2022-12-31T06:08:42.069Z,577.7
2022-12-31T06:09:44.292Z,577.4
2022-12-31T06:10:46.848Z,577.6
2022-12-31T06:11:49.360Z,577.1
2022-12-31T06:12:51.294Z,577
2022-12-31T06:13:53.520Z,576.6
2022-12-31T06:14:55.501Z,576.4
2022-12-31T06:15:58.095Z,575.9
2022-12-31T06:17:00.356Z,576.2
2022-12-31T06:18:02.575Z,576.4
2022-12-31T06:19:04.915Z,576.2
2022-12-31T06:21:12.407Z,576.3
2022-12-31T06:22:14.926Z,575.9
2022-12-31T06:23:17.452Z,575
2022-12-31T06:24:20.047Z,575.3
2022-12-31T06:25:22.296Z,575.7
2022-12-31T06:26:24.885Z,575.3
2022-12-31T06:27:27.370Z,575.6
2022-12-31T06:28:29.591Z,575
2022-12-31T06:29:31.526Z,575.7
2022-12-31T06:30:33.477Z,574.5
2022-12-31T06:31:36.252Z,574.5
2022-12-31T06:32:38.801Z,574.6
2022-12-31T06:33:40.741Z,574.4
2022-12-31T06:34:43.330Z,574.1
2022-12-31T06:35:45.558Z,574.1
2022-12-31T06:36:48.084Z,574.2
2022-12-31T06:37:50.587Z,573.7
2022-12-31T06:38:52.815Z,574.1
2022-12-31T06:39:55.319Z,573.6
2022-12-31T06:40:57.873Z,573.7
2022-12-31T06:42:00.133Z,574.1
2022-12-31T06:43:02.448Z,574
2022-12-31T06:44:04.405Z,574.3
2022-12-31T06:45:06.931Z,574.4
2022-12-31T06:46:09.579Z,574.3
2022-12-31T06:47:12.144Z,574
2022-12-31T06:48:14.646Z,574.4
2022-12-31T06:49:16.858Z,574.2
2022-12-31T06:50:19.273Z,574
2022-12-31T06:51:21.800Z,574.1
2022-12-31T06:52:24.044Z,574.2
2022-12-31T06:53:26.591Z,574
2022-12-31T06:54:29.115Z,573.9
2022-12-31T06:55:31.397Z,574.3
2022-12-31T06:57:38.436Z,573.9
2022-12-31T06:58:40.931Z,574.4
2022-12-31T06:59:43.480Z,574.2
2022-12-31T07:00:46.015Z,574.3
2022-12-31T07:01:49.324Z,574.2
2022-12-31T07:02:52.609Z,574.1
2022-12-31T07:03:55.158Z,574.2
2022-12-31T07:04:57.680Z,574.5
2022-12-31T07:06:00.014Z,573.9
2022-12-31T07:07:02.538Z,573.8
2022-12-31T07:08:04.826Z,573.2
2022-12-31T07:09:07.139Z,573.7
2022-12-31T07:10:09.647Z,573.2
2022-12-31T07:11:11.877Z,572.7
2022-12-31T07:12:14.144Z,572.6
2022-12-31T07:13:16.675Z,573
2022-12-31T07:14:19.066Z,572.6
2022-12-31T07:15:21.297Z,572.5
2022-12-31T07:16:24.120Z,572.8
2022-12-31T07:17:26.649Z,572.7
2022-12-31T07:18:29.197Z,572.6
2022-12-31T07:19:31.443Z,572.7
2022-12-31T07:20:33.963Z,572.6
2022-12-31T07:21:36.645Z,572.2
2022-12-31T07:22:39.154Z,572.4
2022-12-31T07:23:41.664Z,572.1
2022-12-31T07:24:44.181Z,572.2
2022-12-31T07:25:46.664Z,572.1
2022-12-31T07:27:54.212Z,572.2
2022-12-31T07:28:56.482Z,571.5
2022-12-31T07:29:58.756Z,571.6
2022-12-31T07:31:01.263Z,571.6
2022-12-31T07:32:03.531Z,571.4
2022-12-31T07:33:06.088Z,571.3
2022-12-31T07:34:08.062Z,571
2022-12-31T07:35:10.613Z,570.9
2022-12-31T07:36:13.152Z,570.9
2022-12-31T07:37:15.797Z,570.9
2022-12-31T07:38:18.033Z,570.9
2022-12-31T07:39:20.544Z,570.8
2022-12-31T07:40:23.095Z,570.7
2022-12-31T07:41:25.349Z,571
2022-12-31T07:42:27.568Z,571
2022-12-31T07:43:30.074Z,570.6
2022-12-31T07:44:32.592Z,570.9
2022-12-31T07:45:35.124Z,570.6
2022-12-31T07:46:37.903Z,570.6
2022-12-31T07:47:40.141Z,570.5
2022-12-31T07:48:42.668Z,570.4
2022-12-31T07:49:45.211Z,570.1
2022-12-31T07:50:47.714Z,570.9
2022-12-31T07:51:50.200Z,570
2022-12-31T07:52:52.893Z,569.9
2022-12-31T07:53:55.403Z,569.8
2022-12-31T07:54:57.641Z,569.9
2022-12-31T07:56:00.180Z,569
2022-12-31T07:57:02.432Z,569.4
2022-12-31T07:58:04.755Z,568.8
2022-12-31T07:59:07.307Z,568.9
2022-12-31T08:00:09.863Z,569.1
2022-12-31T08:01:13.040Z,569.4
2022-12-31T08:02:16.738Z,569.2
2022-12-31T08:03:18.995Z,569.5
2022-12-31T08:04:21.613Z,569.3
2022-12-31T08:05:23.605Z,569.1
2022-12-31T08:06:25.837Z,569
2022-12-31T08:07:28.343Z,569
2022-12-31T08:08:30.955Z,569
2022-12-31T08:09:33.218Z,568.7
2022-12-31T08:10:35.431Z,569
2022-12-31T08:11:37.955Z,568.9
2022-12-31T08:12:40.470Z,569
2022-12-31T08:13:42.418Z,568.6
2022-12-31T08:14:44.346Z,568.8
2022-12-31T08:15:46.321Z,568.9
2022-12-31T08:16:48.976Z,568.3
2022-12-31T08:17:51.592Z,568.4
2022-12-31T08:18:53.857Z,568.2
2022-12-31T08:19:56.381Z,568.3
2022-12-31T08:20:58.583Z,567.7
2022-12-31T08:22:01.111Z,568.4
2022-12-31T08:23:03.339Z,568.4
2022-12-31T08:24:05.673Z,568.2
2022-12-31T08:25:07.665Z,568.3
2022-12-31T08:26:10.288Z,568.3
2022-12-31T08:27:12.512Z,568.5
2022-12-31T08:28:15.021Z,568.1
2022-12-31T08:29:17.542Z,568.2
2022-12-31T08:30:20.050Z,568.6
2022-12-31T08:31:23.020Z,568.4
2022-12-31T08:32:25.530Z,568.3
2022-12-31T08:33:28.068Z,567.9
2022-12-31T08:34:30.011Z,568
2022-12-31T08:35:32.536Z,568
2022-12-31T08:36:34.751Z,568.3
2022-12-31T08:37:36.691Z,568.4
2022-12-31T08:38:39.233Z,568.5
2022-12-31T08:39:41.916Z,568.8
2022-12-31T08:40:44.559Z,568.6
2022-12-31T08:41:46.796Z,568.6
2022-12-31T08:42:49.022Z,568.3
2022-12-31T08:43:51.001Z,568
2022-12-31T08:44:53.529Z,568.1
2022-12-31T08:45:56.339Z,568.3
2022-12-31T08:46:58.893Z,568.1
2022-12-31T08:48:02.322Z,568.5
2022-12-31T08:49:04.843Z,568.8
2022-12-31T08:50:07.108Z,568.7
2022-12-31T08:51:09.602Z,568.7
2022-12-31T08:52:11.839Z,568.8
2022-12-31T08:53:14.338Z,568.8
2022-12-31T08:54:17.100Z,569.4
2022-12-31T08:55:19.726Z,569.1
2022-12-31T08:56:22.245Z,568.8
2022-12-31T08:57:24.500Z,569.2
2022-12-31T08:58:27.011Z,569.2
2022-12-31T08:59:29.528Z,569
2022-12-31T09:00:32.099Z,568.8
2022-12-31T09:01:34.423Z,568.6
2022-12-31T09:02:36.491Z,568.5
2022-12-31T09:03:38.733Z,568.3
2022-12-31T09:04:40.956Z,568.2
2022-12-31T09:05:43.192Z,567.8
2022-12-31T09:06:45.449Z,567.6
2022-12-31T09:07:47.414Z,567.6
2022-12-31T09:08:49.626Z,567.7
2022-12-31T09:09:51.602Z,567.9
2022-12-31T09:10:54.217Z,567.6
2022-12-31T09:11:56.720Z,567.7
2022-12-31T09:12:59.232Z,567.6
2022-12-31T09:14:01.508Z,567.5
2022-12-31T09:15:03.503Z,567.2
2022-12-31T09:16:06.084Z,567.3
2022-12-31T09:17:08.096Z,566.8
2022-12-31T09:18:10.657Z,566.8
2022-12-31T09:19:13.204Z,566.7
2022-12-31T09:20:15.461Z,566.7
2022-12-31T09:21:17.725Z,566.8
2022-12-31T09:22:19.965Z,567.4
2022-12-31T09:23:22.480Z,566.9
2022-12-31T09:24:25.006Z,566.5
2022-12-31T09:25:27.534Z,566.7
2022-12-31T09:26:29.579Z,566.4
2022-12-31T09:27:32.103Z,566.6
2022-12-31T09:28:34.602Z,566.7
2022-12-31T09:29:36.305Z,566.3
2022-12-31T09:30:38.531Z,566.8
2022-12-31T09:31:40.897Z,566.6
2022-12-31T09:32:43.185Z,567
2022-12-31T09:33:45.717Z,566.3
2022-12-31T09:34:48.241Z,566.9
2022-12-31T09:35:50.525Z,567
2022-12-31T09:36:52.786Z,566.9
2022-12-31T09:37:55.028Z,566.7
2022-12-31T09:38:56.992Z,567
2022-12-31T09:39:59.235Z,566.3
2022-12-31T09:41:01.764Z,566.5
2022-12-31T09:42:04.436Z,566.8
2022-12-31T09:43:07.022Z,567
2022-12-31T09:44:09.532Z,566.7
2022-12-31T09:45:11.530Z,566.5
2022-12-31T09:46:14.391Z,566.9
2022-12-31T09:47:16.970Z,567
2022-12-31T09:48:19.365Z,567.2
2022-12-31T09:49:21.916Z,567
2022-12-31T09:50:24.439Z,567.3
2022-12-31T09:51:27.759Z,567.8
2022-12-31T09:52:30.281Z,567.7
2022-12-31T09:53:32.215Z,568.3
2022-12-31T09:54:34.763Z,568.2
2022-12-31T09:55:37.253Z,568
2022-12-31T09:56:39.783Z,568
2022-12-31T09:57:42.485Z,567.7
2022-12-31T09:58:45.014Z,568
2022-12-31T09:59:47.529Z,567.9
2022-12-31T10:00:50.207Z,567.6
2022-12-31T10:01:53.446Z,567.3
2022-12-31T10:02:56.123Z,567.5
2022-12-31T10:03:58.732Z,567.2
2022-12-31T10:05:00.833Z,567.4
2022-12-31T10:06:03.059Z,567.5
2022-12-31T10:07:05.559Z,567.3
2022-12-31T10:08:07.533Z,567.3
2022-12-31T10:09:09.757Z,568.1
2022-12-31T10:10:12.292Z,567.9
2022-12-31T10:11:14.839Z,568.3
2022-12-31T10:12:17.081Z,568.2
2022-12-31T10:13:19.679Z,568.4
2022-12-31T10:14:21.958Z,568.5
2022-12-31T10:15:24.200Z,568.4
2022-12-31T10:16:27.147Z,568.6
2022-12-31T10:17:29.655Z,568.1
2022-12-31T10:18:31.905Z,568.8
2022-12-31T10:19:34.119Z,568.7
2022-12-31T10:21:41.632Z,568.9
2022-12-31T10:22:44.146Z,569.2
2022-12-31T10:23:46.381Z,569.5
2022-12-31T10:24:48.909Z,569.4
2022-12-31T10:25:52.811Z,568.9
2022-12-31T10:26:55.413Z,569.1
2022-12-31T10:27:57.966Z,569.5
2022-12-31T10:29:00.572Z,569.6
2022-12-31T10:30:03.115Z,569.8
2022-12-31T10:31:05.894Z,569.5
2022-12-31T10:32:08.430Z,570.1
2022-12-31T10:33:10.668Z,569.5
2022-12-31T10:34:12.635Z,570.2
2022-12-31T10:35:15.177Z,569.8
2022-12-31T10:36:17.946Z,569.7
2022-12-31T10:37:20.459Z,569.7
2022-12-31T10:38:22.975Z,569.6
2022-12-31T10:39:26.418Z,569.3
2022-12-31T10:40:28.933Z,569.5
2022-12-31T10:41:30.905Z,569.2
2022-12-31T10:42:33.114Z,569.4
2022-12-31T10:43:35.634Z,569.5
2022-12-31T10:44:38.017Z,569.5
2022-12-31T10:45:40.531Z,569.8
2022-12-31T10:46:42.979Z,569.3
2022-12-31T10:47:45.501Z,569.6
2022-12-31T10:48:47.460Z,569.9
2022-12-31T10:49:49.985Z,569.4
2022-12-31T10:50:52.491Z,569
2022-12-31T10:51:54.473Z,569.5
2022-12-31T10:52:56.998Z,569.3
2022-12-31T10:53:59.555Z,569.3
2022-12-31T10:55:01.798Z,569.5
2022-12-31T10:56:04.029Z,569.8
2022-12-31T10:57:06.558Z,569.4
2022-12-31T10:58:08.517Z,569.7
2022-12-31T10:59:11.048Z,569.7
2022-12-31T11:00:13.778Z,569.6
2022-12-31T11:01:16.059Z,569.7
2022-12-31T11:02:19.665Z,569.5
2022-12-31T11:04:27.296Z,570.3
2022-12-31T11:05:29.812Z,570.4
2022-12-31T11:06:32.089Z,570.5
2022-12-31T11:07:34.624Z,570.4
2022-12-31T11:08:36.594Z,570.6
2022-12-31T11:09:39.123Z,570.5
2022-12-31T11:10:41.634Z,570.7
2022-12-31T11:11:43.879Z,570.8
2022-12-31T11:12:46.138Z,570.8
2022-12-31T11:13:48.101Z,571.1
2022-12-31T11:14:50.364Z,570.8
2022-12-31T11:15:52.906Z,570.9
2022-12-31T11:16:55.410Z,570.9
2022-12-31T11:17:57.937Z,570.7
2022-12-31T11:19:00.460Z,571
2022-12-31T11:20:02.750Z,571.2
2022-12-31T11:21:05.290Z,571.3
2022-12-31T11:22:07.534Z,571.1
2022-12-31T11:23:10.074Z,571.4
2022-12-31T11:24:12.578Z,571.2
2022-12-31T11:25:14.791Z,571.4
2022-12-31T11:26:17.283Z,572
2022-12-31T11:27:19.805Z,571.8
2022-12-31T11:28:22.359Z,572.1
2022-12-31T11:29:24.906Z,572.2
2022-12-31T11:30:27.194Z,572
2022-12-31T11:31:30.137Z,572.3
2022-12-31T11:32:32.649Z,572.7
2022-12-31T11:33:34.872Z,572.6
2022-12-31T11:34:36.870Z,572.8
2022-12-31T11:35:39.180Z,572.8
2022-12-31T11:36:41.794Z,573
2022-12-31T11:37:44.368Z,572.8
2022-12-31T11:38:46.913Z,573
2022-12-31T11:39:49.428Z,573.2
2022-12-31T11:40:51.676Z,573.2
2022-12-31T11:41:53.907Z,572.8
2022-12-31T11:42:56.158Z,573.2
2022-12-31T11:43:58.438Z,573.3
2022-12-31T11:45:00.705Z,573.2
2022-12-31T11:46:03.508Z,573.8
2022-12-31T11:47:06.136Z,573.7
2022-12-31T11:49:13.640Z,574.1
2022-12-31T11:50:16.021Z,574.1
2022-12-31T11:51:18.528Z,573.9
2022-12-31T11:53:26.026Z,574.7
2022-12-31T11:54:28.312Z,575.1
2022-12-31T11:55:30.838Z,574.6
2022-12-31T11:56:33.405Z,575.1
2022-12-31T11:57:35.646Z,575.1
2022-12-31T11:58:38.171Z,575.8
2022-12-31T11:59:40.695Z,576.5
2022-12-31T12:00:43.218Z,576
2022-12-31T12:01:45.570Z,575.7
2022-12-31T12:02:48.155Z,576.3
2022-12-31T12:03:50.668Z,576.6
2022-12-31T12:04:52.977Z,576.3
2022-12-31T12:05:55.500Z,576.2
2022-12-31T12:06:58.021Z,576.3
2022-12-31T12:08:00.239Z,577
2022-12-31T12:09:02.815Z,576.9
2022-12-31T12:10:05.109Z,576.5
2022-12-31T12:11:07.323Z,577
2022-12-31T12:12:09.285Z,577.2
2022-12-31T12:13:11.820Z,576.9
2022-12-31T12:14:14.081Z,576.5
2022-12-31T12:15:16.848Z,576.9
2022-12-31T12:16:19.536Z,576.8
2022-12-31T12:17:22.086Z,576.8
2022-12-31T12:18:24.701Z,576.8
2022-12-31T12:19:27.226Z,576.7
2022-12-31T12:20:29.476Z,576.8
2022-12-31T12:21:32.004Z,576.6
2022-12-31T12:22:34.524Z,576.3
2022-12-31T12:23:36.822Z,576.9
2022-12-31T12:24:39.375Z,576.4
2022-12-31T12:25:41.943Z,576.5
2022-12-31T12:26:44.199Z,576.6
2022-12-31T12:27:46.714Z,576.6
2022-12-31T12:28:48.934Z,576.6
2022-12-31T12:29:51.519Z,576.1
2022-12-31T12:30:54.019Z,576.4
2022-12-31T12:31:56.245Z,576.1
2022-12-31T12:32:58.543Z,576.3
2022-12-31T12:34:01.217Z,575.9
2022-12-31T12:35:02.910Z,575.8
2022-12-31T12:36:04.604Z,575.9
2022-12-31T12:37:07.186Z,575.8
2022-12-31T12:38:09.435Z,576
2022-12-31T12:39:11.710Z,575.9
2022-12-31T12:40:13.720Z,576
2022-12-31T12:41:15.986Z,576.3
2022-12-31T12:42:18.221Z,576.8
2022-12-31T12:43:20.741Z,576.6
2022-12-31T12:44:23.256Z,577.1
2022-12-31T12:45:25.800Z,577.1
2022-12-31T12:46:28.603Z,576.9
2022-12-31T12:47:31.123Z,576.7
2022-12-31T12:48:33.673Z,577
2022-12-31T12:49:36.276Z,576.7
2022-12-31T12:50:38.527Z,576.9
2022-12-31T12:51:41.087Z,576.8
2022-12-31T12:52:43.681Z,577.1
2022-12-31T12:53:46.187Z,576.9
2022-12-31T12:54:48.443Z,576.9
2022-12-31T12:55:50.963Z,576.6
2022-12-31T12:56:53.194Z,576.2
2022-12-31T12:57:55.702Z,576.4
2022-12-31T12:58:57.958Z,576.9
2022-12-31T12:59:59.903Z,576.4
2022-12-31T13:01:02.878Z,576.3
2022-12-31T13:02:06.152Z,575.8
2022-12-31T13:03:09.040Z,576.3
2022-12-31T13:05:16.653Z,576.6
2022-12-31T13:06:18.631Z,576.5
2022-12-31T13:07:21.171Z,576.8
2022-12-31T13:08:23.676Z,576.6
2022-12-31T13:09:25.902Z,576.4
2022-12-31T13:10:28.166Z,576.3
2022-12-31T13:11:30.680Z,576.3
2022-12-31T13:13:38.185Z,576.1
2022-12-31T13:14:40.685Z,576.4
2022-12-31T13:15:43.209Z,576.1
2022-12-31T13:16:45.947Z,576.3
2022-12-31T13:18:53.484Z,576.6
2022-12-31T13:19:56.028Z,576.3
2022-12-31T13:20:58.639Z,576.5
2022-12-31T13:22:00.907Z,576.3
2022-12-31T13:23:03.140Z,576.7
2022-12-31T13:24:05.702Z,577
2022-12-31T13:25:07.964Z,577.2
2022-12-31T13:26:10.498Z,577.2
2022-12-31T13:27:12.776Z,577
2022-12-31T13:28:15.312Z,577.5
2022-12-31T13:29:17.528Z,577.7
2022-12-31T13:30:20.032Z,577.8
2022-12-31T13:31:22.821Z,577.5
2022-12-31T13:32:25.363Z,577.5
2022-12-31T13:33:27.892Z,577.2
2022-12-31T13:34:30.438Z,577.3
2022-12-31T13:35:32.689Z,577
2022-12-31T13:36:35.315Z,576.9
2022-12-31T13:37:37.833Z,576.9
2022-12-31T13:38:40.337Z,576.6
2022-12-31T13:39:42.322Z,576.4
2022-12-31T13:40:44.846Z,576.4
2022-12-31T13:41:47.364Z,576.8
2022-12-31T13:42:49.871Z,576.9
2022-12-31T13:43:53.209Z,577.3
2022-12-31T13:44:55.457Z,577.1